Time;durP1;ratioP1;P1;durP2;ratioP2;P2;SDS_P1;SDS_P2;PMS_P1;PMS_P2;Temp;Humidity;BMP_temperature;BMP_pressure;BME280_temperature;BME280_humidity;BME280_pressure;Samples;Min_cycle;Max_cycle;Signal;HPM_P1;HPM_P2
2022/03/20 00:00:22;;;;;;;6.38;1.58;;;1.80;99.90;;;;;;5000460;28;20046;-69
2022/03/20 00:02:50;;;;;;;2.28;1.58;;;1.70;99.90;;;;;;4994186;28;20038;-69
2022/03/20 00:05:17;;;;;;;5.82;2.08;;;1.70;99.90;;;;;;5000183;28;20347;-69
2022/03/20 00:07:46;;;;;;;5.32;1.65;;;1.70;99.90;;;;;;4996182;28;20054;-68
2022/03/20 00:10:14;;;;;;;9.93;2.28;;;1.70;99.90;;;;;;4999429;28;20417;-68
2022/03/20 00:12:42;;;;;;;5.68;1.67;;;1.70;99.90;;;;;;4998182;28;20523;-69
2022/03/20 00:15:09;;;;;;;4.20;2.05;;;1.70;99.90;;;;;;5001134;28;20057;-65
2022/03/20 00:17:37;;;;;;;6.22;1.63;;;1.70;99.90;;;;;;4995326;28;20666;-69
2022/03/20 00:20:05;;;;;;;7.80;2.22;;;1.70;99.90;;;;;;5001259;28;20095;-71
2022/03/20 00:22:34;;;;;;;9.60;1.90;;;1.60;99.90;;;;;;4995916;28;20077;-65
2022/03/20 00:25:03;;;;;;;4.38;2.10;;;1.70;99.90;;;;;;4995889;28;20068;-69
2022/03/20 00:27:32;;;;;;;5.65;2.10;;;1.60;99.90;;;;;;4999804;28;20057;-71
2022/03/20 00:30:00;;;;;;;5.25;1.80;;;1.60;99.90;;;;;;4997299;28;20057;-68
2022/03/20 00:32:27;;;;;;;3.92;2.03;;;1.60;99.90;;;;;;4996474;28;20107;-67
2022/03/20 00:34:57;;;;;;;6.68;1.83;;;1.60;99.90;;;;;;4999649;28;20157;-68
2022/03/20 00:37:24;;;;;;;7.65;1.92;;;1.50;99.90;;;;;;4995593;28;20050;-66
2022/03/20 00:39:51;;;;;;;6.72;1.52;;;1.50;99.90;;;;;;4993811;28;20136;-72
2022/03/20 00:42:18;;;;;;;4.97;1.67;;;1.60;99.90;;;;;;4997860;28;20387;-70
2022/03/20 00:44:45;;;;;;;8.68;1.92;;;1.50;99.90;;;;;;5001225;28;20470;-68
2022/03/20 00:47:13;;;;;;;5.68;2.30;;;1.50;99.90;;;;;;4997403;28;20046;-65
2022/03/20 00:49:41;;;;;;;4.22;1.95;;;1.40;99.90;;;;;;5001381;28;20456;-64
2022/03/20 00:52:09;;;;;;;7.82;2.22;;;1.40;99.90;;;;;;4994437;28;20121;-67
2022/03/20 00:54:36;;;;;;;2.67;1.88;;;1.30;99.90;;;;;;4999276;28;20108;-64
2022/03/20 00:57:04;;;;;;;3.40;2.00;;;1.20;99.90;;;;;;4996697;28;20050;-70
2022/03/20 00:59:31;;;;;;;5.95;1.67;;;1.20;99.90;;;;;;5001016;28;20177;-69
2022/03/20 01:01:58;;;;;;;6.97;2.05;;;1.10;99.90;;;;;;4999711;28;20108;-67
2022/03/20 01:04:25;;;;;;;6.38;2.92;;;1.10;99.90;;;;;;4999113;28;20096;-68
2022/03/20 01:06:55;;;;;;;4.55;1.63;;;1.00;99.90;;;;;;5000140;28;20107;-69
2022/03/20 01:09:22;;;;;;;5.97;2.20;;;1.00;99.90;;;;;;4998794;28;20518;-65
2022/03/20 01:11:50;;;;;;;9.45;2.47;;;1.00;99.90;;;;;;4997308;28;20167;-75
2022/03/20 01:14:18;;;;;;;7.13;3.17;;;0.90;99.90;;;;;;4999549;28;20049;-66
2022/03/20 01:16:46;;;;;;;6.70;2.35;;;0.90;99.90;;;;;;4987201;28;20050;-66
2022/03/20 01:19:13;;;;;;;3.75;1.70;;;0.80;99.90;;;;;;4996875;28;20056;-65
2022/03/20 01:21:41;;;;;;;7.15;2.30;;;0.80;99.90;;;;;;4999507;28;20053;-70
2022/03/20 01:24:08;;;;;;;8.40;2.47;;;0.80;99.90;;;;;;4998848;28;20073;-68
2022/03/20 01:26:36;;;;;;;7.00;2.65;;;0.70;99.90;;;;;;4999229;28;20132;-70
2022/03/20 01:29:07;;;;;;;11.23;3.00;;;0.70;99.90;;;;;;4994705;28;20085;-70
2022/03/20 01:31:35;;;;;;;6.35;2.08;;;0.70;99.90;;;;;;4994667;28;20506;-71
2022/03/20 01:34:03;;;;;;;10.82;3.13;;;0.60;99.90;;;;;;5000158;28;20065;-67
2022/03/20 01:36:31;;;;;;;7.22;2.97;;;0.60;99.90;;;;;;4999754;28;20081;-67
2022/03/20 01:38:58;;;;;;;8.55;2.47;;;0.50;99.90;;;;;;5001201;28;20579;-68
2022/03/20 01:41:25;;;;;;;9.35;3.45;;;0.50;99.90;;;;;;4999592;28;20053;-65
2022/03/20 01:43:55;;;;;;;8.50;3.15;;;0.50;99.90;;;;;;5002360;28;20046;-65
2022/03/20 01:46:22;;;;;;;10.23;2.15;;;0.40;99.90;;;;;;5005724;28;20640;-69
2022/03/20 01:48:49;;;;;;;6.85;2.20;;;0.40;99.90;;;;;;5002228;28;20508;-67
2022/03/20 01:51:17;;;;;;;6.35;2.92;;;0.40;99.90;;;;;;4999921;28;20123;-66
2022/03/20 01:53:44;;;;;;;7.43;3.08;;;0.40;99.90;;;;;;4994903;28;20129;-69
2022/03/20 01:56:11;;;;;;;7.43;2.72;;;0.40;99.90;;;;;;5002287;28;20042;-70
2022/03/20 01:58:38;;;;;;;7.28;2.85;;;0.40;99.90;;;;;;5003738;28;20571;-70
2022/03/20 02:01:05;;;;;;;14.93;2.78;;;0.30;99.90;;;;;;5001633;28;20077;-65
2022/03/20 02:03:32;;;;;;;7.75;3.03;;;0.30;99.90;;;;;;5002721;28;20404;-69
2022/03/20 02:06:00;;;;;;;8.60;3.60;;;0.30;99.90;;;;;;5002181;28;20049;-72
2022/03/20 02:08:30;;;;;;;8.43;4.13;;;0.20;99.90;;;;;;4995345;28;20065;-64
2022/03/20 02:10:57;;;;;;;3.58;2.22;;;0.20;99.90;;;;;;4999357;28;20068;-65
2022/03/20 02:13:26;;;;;;;6.10;2.17;;;0.20;99.90;;;;;;5000688;28;20144;-68
2022/03/20 02:15:53;;;;;;;9.43;3.63;;;0.20;99.90;;;;;;5000533;28;20140;-70
2022/03/20 02:18:20;;;;;;;6.55;2.78;;;0.20;99.90;;;;;;5000146;28;20244;-68
2022/03/20 02:20:48;;;;;;;4.78;2.40;;;0.20;99.90;;;;;;4998378;28;20046;-66
2022/03/20 02:23:16;;;;;;;5.00;2.30;;;0.20;99.90;;;;;;4993273;28;20050;-69
2022/03/20 02:25:50;;;;;;;6.55;2.38;;;0.10;99.90;;;;;;5003102;28;20054;-70
2022/03/20 02:28:18;;;;;;;13.45;3.33;;;0.10;99.90;;;;;;4996415;28;20141;-65
2022/03/20 02:30:46;;;;;;;10.95;2.88;;;0.10;99.90;;;;;;5001150;28;20472;-69
2022/03/20 02:33:13;;;;;;;6.97;2.88;;;0.10;99.90;;;;;;4998964;28;20072;-72
2022/03/20 02:35:41;;;;;;;6.10;2.80;;;0.10;99.90;;;;;;5005196;28;20077;-65
2022/03/20 02:38:10;;;;;;;7.78;3.72;;;0.20;99.90;;;;;;5002924;28;20061;-68
2022/03/20 02:40:37;;;;;;;9.65;3.97;;;0.20;99.90;;;;;;5001002;28;20092;-65
2022/03/20 02:43:06;;;;;;;5.85;2.17;;;0.30;99.90;;;;;;5001653;28;20120;-69
2022/03/20 02:45:34;;;;;;;8.85;2.38;;;0.30;99.90;;;;;;5004383;28;20046;-68
2022/03/20 02:48:04;;;;;;;5.13;1.95;;;0.40;99.90;;;;;;5000011;28;20542;-69
2022/03/20 02:50:32;;;;;;;5.38;2.00;;;0.40;99.90;;;;;;4998448;28;20050;-71
2022/03/20 02:53:04;;;;;;;7.88;2.58;;;0.50;99.90;;;;;;4997691;28;20050;-70
2022/03/20 02:55:35;;;;;;;10.30;2.53;;;0.50;99.90;;;;;;5001902;28;20056;-69
2022/03/20 02:58:04;;;;;;;3.95;3.15;;;0.40;99.90;;;;;;5000909;28;20056;-71
2022/03/20 03:00:33;;;;;;;8.60;3.97;;;0.40;99.90;;;;;;5001245;28;20141;-66
2022/03/20 03:03:04;;;;;;;8.60;2.35;;;0.30;99.90;;;;;;4998310;28;20057;-69
2022/03/20 03:05:32;;;;;;;4.35;3.50;;;0.30;99.90;;;;;;4999033;28;20054;-68
2022/03/20 03:10:59;;;;;;;5.28;3.13;;;0.30;99.90;;;;;;5000669;28;20124;-66
2022/03/20 03:13:40;;;;;;;5.57;2.92;;;0.30;99.90;;;;;;4998504;28;20137;-67
2022/03/20 03:16:13;;;;;;;11.73;2.63;;;0.30;99.90;;;;;;5001714;28;20041;-72
2022/03/20 03:18:46;;;;;;;4.60;2.15;;;0.30;99.90;;;;;;4993291;28;20188;-69
2022/03/20 03:21:14;;;;;;;6.93;2.55;;;0.30;99.90;;;;;;4997414;28;20168;-69
2022/03/20 03:23:42;;;;;;;9.10;2.85;;;0.30;99.90;;;;;;4998025;28;20408;-69
2022/03/20 03:26:10;;;;;;;11.00;2.60;;;0.30;99.90;;;;;;5000108;28;20085;-70
2022/03/20 03:28:37;;;;;;;10.45;2.35;;;0.30;99.90;;;;;;5001942;28;20073;-69
2022/03/20 03:31:07;;;;;;;7.10;2.53;;;0.20;99.90;;;;;;5000685;28;20755;-68
2022/03/20 03:33:36;;;;;;;9.13;2.87;;;0.20;99.90;;;;;;5003613;28;20107;-65
2022/03/20 03:36:03;;;;;;;10.23;2.95;;;0.10;99.90;;;;;;4997769;28;20143;-68
2022/03/20 03:38:35;;;;;;;7.75;3.25;;;0.10;99.90;;;;;;4993792;28;20456;-68
2022/03/20 03:41:03;;;;;;;8.40;3.35;;;0.00;99.90;;;;;;4999296;28;20057;-68
2022/03/20 03:43:30;;;;;;;12.60;2.70;;;0.00;99.90;;;;;;5000370;28;20153;-72
2022/03/20 03:45:57;;;;;;;9.80;3.42;;;-0.10;99.90;;;;;;4998835;28;20846;-66
2022/03/20 03:48:25;;;;;;;3.72;2.17;;;-0.10;99.90;;;;;;4997391;28;20050;-64
2022/03/20 03:50:53;;;;;;;5.90;2.75;;;-0.10;99.90;;;;;;5001595;28;20113;-71
2022/03/20 03:53:20;;;;;;;7.95;2.60;;;-0.20;99.90;;;;;;4996408;28;20095;-65
2022/03/20 03:55:47;;;;;;;11.60;3.05;;;-0.20;99.90;;;;;;5001927;28;20066;-68
2022/03/20 03:58:15;;;;;;;21.92;7.00;;;-0.20;99.90;;;;;;4995186;28;20073;-66
2022/03/20 04:00:43;;;;;;;5.57;2.25;;;-0.20;99.90;;;;;;5000971;28;20139;-65
2022/03/20 04:03:11;;;;;;;7.22;2.35;;;-0.20;99.90;;;;;;4995099;28;20412;-67
2022/03/20 04:05:39;;;;;;;4.43;2.60;;;-0.30;99.90;;;;;;4999469;28;20045;-73
2022/03/20 04:08:07;;;;;;;5.43;2.30;;;-0.20;99.90;;;;;;4998865;28;20042;-65
2022/03/20 04:10:34;;;;;;;5.45;3.03;;;-0.30;99.90;;;;;;4999590;28;20581;-68
2022/03/20 04:13:01;;;;;;;6.78;3.45;;;-0.30;99.90;;;;;;4993520;28;20050;-67
2022/03/20 04:15:30;;;;;;;6.28;2.25;;;-0.30;99.90;;;;;;4997344;28;20125;-69
2022/03/20 04:18:00;;;;;;;4.07;2.10;;;-0.30;99.90;;;;;;5000187;28;20060;-68
2022/03/20 04:20:27;;;;;;;3.75;2.40;;;-0.30;99.90;;;;;;4991621;28;20054;-68
2022/03/20 04:25:40;;;;;;;7.50;2.78;;;-0.30;99.90;;;;;;5012775;28;20073;-67
2022/03/20 04:28:07;;;;;;;5.35;2.42;;;-0.30;99.90;;;;;;4999420;28;20121;-69
2022/03/20 04:30:35;;;;;;;8.85;2.67;;;-0.30;99.90;;;;;;4999523;28;20133;-65
2022/03/20 04:33:02;;;;;;;7.68;2.50;;;-0.30;99.90;;;;;;5000215;28;20046;-68
2022/03/20 04:35:30;;;;;;;8.35;2.92;;;-0.40;99.90;;;;;;5001934;28;20057;-69
2022/03/20 04:38:02;;;;;;;7.07;3.30;;;-0.40;99.90;;;;;;4999754;28;20053;-71
2022/03/20 04:40:29;;;;;;;7.25;2.20;;;-0.40;99.90;;;;;;4995298;28;20151;-67
2022/03/20 04:42:56;;;;;;;7.57;2.58;;;-0.40;99.90;;;;;;4999729;28;20050;-66
2022/03/20 04:45:24;;;;;;;8.27;2.80;;;-0.40;99.90;;;;;;4999138;28;20419;-65
2022/03/20 04:58:53;;;;;;;11.68;2.55;;;-0.30;99.90;;;;;;4997177;28;20144;-68
2022/03/20 05:01:20;;;;;;;3.88;1.95;;;-0.30;99.90;;;;;;4997776;28;20796;-73
2022/03/20 05:03:48;;;;;;;7.30;2.53;;;-0.30;99.90;;;;;;4997763;28;20061;-65
2022/03/20 05:06:14;;;;;;;5.68;2.20;;;-0.30;99.90;;;;;;5000317;28;20049;-66
2022/03/20 05:08:41;;;;;;;5.75;2.47;;;-0.30;99.90;;;;;;4997830;28;20065;-74
2022/03/20 05:14:02;;;;;;;8.93;2.90;;;-0.30;99.90;;;;;;4984705;28;20058;-70
2022/03/20 05:16:29;;;;;;;8.15;2.80;;;-0.30;99.90;;;;;;5004961;28;20132;-70
2022/03/20 05:18:56;;;;;;;5.30;2.92;;;-0.20;99.90;;;;;;5004083;28;20073;-66
2022/03/20 05:21:23;;;;;;;6.22;3.03;;;-0.20;99.90;;;;;;4999975;28;20116;-71
2022/03/20 05:23:55;;;;;;;6.40;2.92;;;-0.30;99.90;;;;;;5001862;28;20171;-68
2022/03/20 05:26:22;;;;;;;9.48;2.97;;;-0.20;99.90;;;;;;4997954;28;20137;-70
2022/03/20 05:28:49;;;;;;;3.70;2.45;;;-0.20;99.90;;;;;;4999585;28;20603;-64
2022/03/20 05:31:16;;;;;;;7.65;3.65;;;-0.20;99.90;;;;;;5002440;28;20543;-66
2022/03/20 05:33:44;;;;;;;12.75;3.08;;;-0.20;99.90;;;;;;5001856;28;20060;-69
2022/03/20 05:36:11;;;;;;;7.10;2.70;;;-0.20;99.90;;;;;;4999755;28;20145;-71
2022/03/20 05:38:38;;;;;;;9.10;3.13;;;-0.10;99.90;;;;;;5010658;28;20065;-69
2022/03/20 05:43:52;;;;;;;10.75;2.88;;;-0.10;99.90;;;;;;5000252;28;20145;-68
2022/03/20 05:46:20;;;;;;;8.45;3.83;;;0.00;99.90;;;;;;4997911;28;20058;-65
2022/03/20 05:48:47;;;;;;;5.28;2.60;;;0.00;99.90;;;;;;5001686;28;20219;-68
2022/03/20 05:51:15;;;;;;;7.28;2.33;;;0.10;99.90;;;;;;5002521;28;20147;-67
2022/03/20 05:53:43;;;;;;;10.02;3.03;;;0.10;99.90;;;;;;5003860;28;20053;-68
2022/03/20 05:58:57;;;;;;;7.95;3.30;;;0.30;99.90;;;;;;5000917;28;20086;-65
2022/03/20 06:01:24;;;;;;;11.57;3.83;;;0.40;99.90;;;;;;4998401;28;21343;-69
2022/03/20 06:03:51;;;;;;;10.95;3.08;;;0.50;99.90;;;;;;5000516;28;20049;-69
2022/03/20 06:06:18;;;;;;;5.88;2.88;;;0.60;99.90;;;;;;5002792;28;20049;-68
2022/03/20 06:08:45;;;;;;;7.32;3.22;;;0.80;99.90;;;;;;5002365;28;20140;-65
2022/03/20 06:11:12;;;;;;;12.13;4.90;;;0.90;99.90;;;;;;4995638;28;20049;-65
2022/03/20 06:13:39;;;;;;;11.23;3.53;;;1.10;99.90;;;;;;5001710;28;20554;-69
2022/03/20 06:16:09;;;;;;;13.95;3.30;;;1.20;99.90;;;;;;4998822;28;20658;-71
2022/03/20 06:18:39;;;;;;;13.98;3.33;;;1.30;99.90;;;;;;5002273;28;20144;-65
2022/03/20 06:21:06;;;;;;;7.93;2.88;;;1.40;99.90;;;;;;4999586;28;20074;-64
2022/03/20 06:23:33;;;;;;;6.88;2.95;;;1.50;99.90;;;;;;4997711;28;20151;-68
2022/03/20 06:26:00;;;;;;;8.52;2.70;;;1.60;99.90;;;;;;5001492;28;20146;-70
2022/03/20 06:28:27;;;;;;;7.40;2.78;;;1.70;99.90;;;;;;5002405;28;20046;-65
2022/03/20 06:30:54;;;;;;;6.47;3.03;;;1.80;99.90;;;;;;5001978;28;20062;-65
2022/03/20 06:33:21;;;;;;;11.07;2.55;;;1.90;99.90;;;;;;4998812;28;21455;-66
2022/03/20 06:35:48;;;;;;;8.75;3.25;;;2.10;99.90;;;;;;5005970;28;20144;-67
2022/03/20 06:38:15;;;;;;;4.75;2.58;;;2.20;99.90;;;;;;5003721;28;20145;-64
2022/03/20 06:40:42;;;;;;;7.45;2.50;;;2.30;99.90;;;;;;4999001;28;20061;-66
2022/03/20 06:43:09;;;;;;;8.45;2.65;;;2.50;99.90;;;;;;4996015;28;20069;-72
2022/03/20 06:45:36;;;;;;;7.90;3.38;;;2.70;99.90;;;;;;4999149;28;20136;-68
2022/03/20 06:48:04;;;;;;;11.32;3.42;;;2.80;99.90;;;;;;5001940;28;20057;-69
2022/03/20 06:50:32;;;;;;;2.45;2.10;;;3.00;99.90;;;;;;4997405;28;20112;-69
2022/03/20 06:53:04;;;;;;;6.35;2.33;;;3.10;99.90;;;;;;5001726;28;20057;-72
2022/03/20 06:55:31;;;;;;;4.05;2.45;;;3.20;99.90;;;;;;4994965;28;20133;-69
2022/03/20 06:57:58;;;;;;;6.38;3.40;;;3.30;99.90;;;;;;4997207;28;20676;-66
2022/03/20 07:00:28;;;;;;;7.15;2.80;;;3.40;99.90;;;;;;4998611;28;20045;-70
2022/03/20 07:02:58;;;;;;;4.57;2.20;;;3.50;99.90;;;;;;4994368;28;20045;-68
2022/03/20 07:05:31;;;;;;;10.70;2.85;;;3.60;99.90;;;;;;4999164;28;20057;-66
2022/03/20 07:07:58;;;;;;;4.22;3.83;;;3.70;99.90;;;;;;5000181;28;20522;-66
2022/03/20 07:10:26;;;;;;;5.97;2.88;;;3.80;99.90;;;;;;4998793;28;20148;-66
2022/03/20 07:13:48;;;;;;;4.82;2.30;;;3.90;99.90;;;;;;4999156;28;20050;-64
2022/03/20 07:15:42;;;;;;;8.68;2.50;;;4.10;99.90;;;;;;5001512;28;20460;-65
2022/03/20 07:18:10;;;;;;;5.32;2.80;;;4.10;99.90;;;;;;5003948;28;20135;-70
2022/03/20 07:20:38;;;;;;;4.82;1.98;;;4.20;99.90;;;;;;4997793;28;20061;-67
2022/03/20 07:23:09;;;;;;;5.32;2.95;;;4.30;99.90;;;;;;4994780;28;20141;-68
2022/03/20 07:31:07;;;;;;;6.25;2.83;;;4.50;99.90;;;;;;5000100;28;20053;-65
2022/03/20 07:33:35;;;;;;;6.45;2.78;;;4.60;99.90;;;;;;4999843;28;20384;-65
2022/03/20 07:36:02;;;;;;;8.65;2.90;;;4.60;99.90;;;;;;4995853;28;20128;-69
2022/03/20 07:38:30;;;;;;;8.35;2.90;;;4.80;99.90;;;;;;5003354;28;20058;-67
2022/03/20 07:40:57;;;;;;;3.63;2.67;;;4.80;99.90;;;;;;5009414;28;20814;-67
2022/03/20 07:43:26;;;;;;;9.60;3.47;;;4.90;99.90;;;;;;5017030;28;20136;-65
2022/03/20 07:45:55;;;;;;;3.65;2.42;;;5.00;99.90;;;;;;4997586;28;20232;-67
2022/03/20 07:48:23;;;;;;;7.60;3.53;;;5.00;99.90;;;;;;5001695;28;20085;-69
2022/03/20 07:50:50;;;;;;;5.35;2.75;;;5.00;99.90;;;;;;4997631;28;20053;-65
2022/03/20 07:53:17;;;;;;;3.85;2.83;;;5.10;99.90;;;;;;4999570;28;20432;-65
2022/03/20 07:55:47;;;;;;;5.35;2.42;;;5.10;99.90;;;;;;5001214;28;20069;-66
2022/03/20 07:58:19;;;;;;;8.23;2.92;;;5.20;99.90;;;;;;5002772;28;20046;-65
2022/03/20 08:00:47;;;;;;;6.47;2.78;;;5.20;99.90;;;;;;4995269;28;20849;-67
2022/03/20 08:03:15;;;;;;;8.93;2.40;;;5.30;99.90;;;;;;4996885;28;20046;-68
2022/03/20 08:05:42;;;;;;;7.70;2.75;;;5.40;99.90;;;;;;5002983;28;20497;-68
2022/03/20 08:08:14;;;;;;;5.00;3.08;;;5.40;99.90;;;;;;5001735;28;20682;-66
2022/03/20 08:10:44;;;;;;;6.07;2.75;;;5.40;99.90;;;;;;4996074;28;20124;-72
2022/03/20 08:13:12;;;;;;;9.30;3.22;;;5.50;99.90;;;;;;4989674;28;20706;-65
2022/03/20 08:15:39;;;;;;;3.92;2.17;;;5.50;99.90;;;;;;5001694;28;20041;-68
2022/03/20 08:18:07;;;;;;;4.68;3.17;;;5.50;99.90;;;;;;4997956;28;20410;-65
2022/03/20 08:20:35;;;;;;;8.95;3.70;;;5.60;99.90;;;;;;4999912;28;20488;-65
2022/03/20 08:23:04;;;;;;;9.00;4.53;;;5.70;99.90;;;;;;4998586;28;20058;-70
2022/03/20 08:25:31;;;;;;;9.40;2.80;;;5.70;99.90;;;;;;4997948;28;20054;-66
2022/03/20 08:27:58;;;;;;;5.35;2.70;;;5.70;99.90;;;;;;5000608;28;20515;-64
2022/03/20 08:30:25;;;;;;;7.60;3.15;;;5.70;99.90;;;;;;4992588;28;20093;-71
2022/03/20 08:32:53;;;;;;;6.05;2.38;;;5.80;99.90;;;;;;4988178;28;20089;-72
2022/03/20 08:35:21;;;;;;;4.75;2.22;;;5.70;99.90;;;;;;4989209;28;20739;-65
2022/03/20 08:37:49;;;;;;;8.00;3.00;;;5.80;99.90;;;;;;4997445;28;20064;-67
2022/03/20 08:40:19;;;;;;;5.68;3.33;;;5.80;99.90;;;;;;4997029;28;20143;-68
2022/03/20 08:42:54;;;;;;;5.97;2.95;;;5.80;99.90;;;;;;4990379;28;20073;-65
2022/03/20 08:45:31;;;;;;;9.82;3.40;;;5.80;99.90;;;;;;4987846;28;20094;-69
2022/03/20 08:47:59;;;;;;;3.25;1.90;;;5.90;99.90;;;;;;4994877;28;20050;-66
2022/03/20 08:50:26;;;;;;;9.60;2.70;;;5.90;99.90;;;;;;4999211;28;20152;-64
2022/03/20 08:52:53;;;;;;;3.70;2.03;;;5.90;99.90;;;;;;4992011;28;20044;-67
2022/03/20 08:55:21;;;;;;;4.47;2.53;;;5.90;99.90;;;;;;4997502;28;20147;-67
2022/03/20 08:57:48;;;;;;;7.85;2.58;;;6.00;99.90;;;;;;4994502;28;20057;-71
2022/03/20 09:00:17;;;;;;;9.48;3.63;;;5.90;99.90;;;;;;4995529;28;20049;-67
2022/03/20 09:02:45;;;;;;;4.72;2.47;;;6.00;99.90;;;;;;4993611;28;20084;-66
2022/03/20 09:05:13;;;;;;;6.45;2.03;;;6.00;99.90;;;;;;4991082;28;20129;-71
2022/03/20 09:07:42;;;;;;;6.05;2.15;;;6.00;99.90;;;;;;4992024;28;21392;-65
2022/03/20 09:10:11;;;;;;;5.28;2.05;;;6.00;99.90;;;;;;4992063;28;20113;-66
2022/03/20 09:12:38;;;;;;;7.78;2.03;;;6.10;99.90;;;;;;4993022;28;20072;-67
2022/03/20 09:15:12;;;;;;;7.03;2.58;;;6.10;99.90;;;;;;4993204;28;20144;-75
2022/03/20 09:20:34;;;;;;;6.18;2.50;;;6.00;99.90;;;;;;4992830;28;20065;-71
2022/03/20 09:23:01;;;;;;;6.47;2.53;;;6.00;99.90;;;;;;4994054;28;20053;-70
2022/03/20 09:25:28;;;;;;;3.97;2.00;;;6.10;99.90;;;;;;4990519;28;20058;-67
2022/03/20 09:28:02;;;;;;;2.85;2.35;;;6.20;99.90;;;;;;4991388;28;20045;-67
2022/03/20 09:30:29;;;;;;;5.70;2.17;;;6.20;99.90;;;;;;4992935;28;20380;-74
2022/03/20 09:32:57;;;;;;;3.20;2.13;;;6.20;99.90;;;;;;4990616;28;20458;-69
2022/03/20 09:35:23;;;;;;;4.70;2.70;;;6.30;99.90;;;;;;4992479;28;20101;-68
2022/03/20 09:37:51;;;;;;;7.80;2.00;;;6.30;99.90;;;;;;4992102;28;20054;-72
2022/03/20 09:40:22;;;;;;;9.05;3.45;;;6.30;99.90;;;;;;4992758;28;20438;-66
2022/03/20 09:42:49;;;;;;;2.25;1.60;;;6.30;99.90;;;;;;4990323;28;20049;-64
2022/03/20 09:45:18;;;;;;;7.70;2.22;;;6.30;99.90;;;;;;4990934;28;20793;-70
2022/03/20 09:47:45;;;;;;;7.40;2.58;;;6.30;99.90;;;;;;4991768;28;20045;-73
2022/03/20 09:50:14;;;;;;;9.02;2.38;;;6.30;99.90;;;;;;4992654;28;20046;-74
2022/03/20 09:52:42;;;;;;;5.80;1.90;;;6.30;99.90;;;;;;4991443;28;21145;-66
2022/03/20 09:55:10;;;;;;;4.43;2.45;;;6.30;99.90;;;;;;4990743;28;20304;-66
2022/03/20 09:57:37;;;;;;;7.72;2.38;;;6.30;99.90;;;;;;4995519;28;20054;-69
2022/03/20 10:00:11;;;;;;;7.03;2.20;;;6.40;99.90;;;;;;4993709;28;20141;-71
2022/03/20 10:02:38;;;;;;;5.50;2.38;;;6.40;99.90;;;;;;4997505;28;20092;-67
2022/03/20 10:05:08;;;;;;;6.10;2.50;;;6.40;99.90;;;;;;4996691;28;20802;-72
2022/03/20 10:07:42;;;;;;;4.78;2.15;;;6.40;99.90;;;;;;4998794;28;20745;-65
2022/03/20 10:10:09;;;;;;;4.18;2.33;;;6.40;99.90;;;;;;4998091;28;20133;-68
2022/03/20 10:12:44;;;;;;;9.13;3.25;;;6.40;99.90;;;;;;4999366;28;20142;-71
2022/03/20 10:15:32;;;;;;;7.03;3.22;;;6.50;99.90;;;;;;4990476;28;20057;-65
2022/03/20 10:18:08;;;;;;;4.28;1.83;;;6.50;99.90;;;;;;4994844;28;20041;-73
2022/03/20 10:20:47;;;;;;;6.25;2.88;;;6.50;99.90;;;;;;5012092;28;20042;-70
2022/03/20 10:23:32;;;;;;;2.45;2.20;;;6.60;99.90;;;;;;4993983;28;20088;-68
2022/03/20 10:26:04;;;;;;;5.22;2.58;;;6.60;99.90;;;;;;4994327;28;20050;-72
2022/03/20 10:28:42;;;;;;;8.18;3.78;;;6.60;99.90;;;;;;4993033;28;20049;-68
2022/03/20 10:31:23;;;;;;;5.53;3.22;;;6.60;99.90;;;;;;4995274;28;20062;-66
2022/03/20 10:34:05;;;;;;;6.45;2.25;;;6.60;99.90;;;;;;4994848;28;20056;-70
2022/03/20 10:36:36;;;;;;;3.80;3.40;;;6.60;99.90;;;;;;4995701;28;20547;-71
2022/03/20 10:39:14;;;;;;;3.85;1.90;;;6.60;99.90;;;;;;4998051;28;20110;-65
2022/03/20 10:41:41;;;;;;;6.10;2.30;;;6.60;99.90;;;;;;4995268;28;20054;-70
2022/03/20 10:44:31;;;;;;;7.57;2.80;;;6.50;99.90;;;;;;4994798;28;20513;-74
2022/03/20 10:47:10;;;;;;;6.28;2.47;;;6.40;99.90;;;;;;4998698;28;20137;-74
2022/03/20 10:49:39;;;;;;;7.47;2.25;;;6.40;99.90;;;;;;5003400;28;20046;-65
2022/03/20 10:52:11;;;;;;;10.35;3.38;;;6.60;99.90;;;;;;5004212;28;20045;-64
2022/03/20 10:54:38;;;;;;;7.28;2.70;;;6.50;99.90;;;;;;4995881;28;20081;-70
2022/03/20 10:57:08;;;;;;;6.43;2.65;;;6.60;99.90;;;;;;5002396;28;20058;-71
2022/03/20 10:59:35;;;;;;;7.00;2.40;;;6.60;99.90;;;;;;5004429;28;20084;-64
2022/03/20 11:02:05;;;;;;;5.00;2.55;;;6.50;99.90;;;;;;5004031;28;20061;-72
2022/03/20 11:04:33;;;;;;;6.47;2.15;;;6.60;99.90;;;;;;5004633;28;20053;-69
2022/03/20 11:07:06;;;;;;;9.15;2.63;;;6.80;99.90;;;;;;5000708;28;20054;-69
2022/03/20 11:09:33;;;;;;;9.25;2.90;;;6.80;99.90;;;;;;5000878;28;20053;-72
2022/03/20 11:12:05;;;;;;;3.42;1.90;;;6.60;99.90;;;;;;5004379;28;20085;-73
2022/03/20 11:14:34;;;;;;;4.32;2.60;;;6.50;99.90;;;;;;4994923;28;20049;-73
2022/03/20 11:17:04;;;;;;;5.78;2.58;;;6.50;99.90;;;;;;4993857;28;20141;-69
2022/03/20 11:19:33;;;;;;;4.87;3.10;;;6.40;99.90;;;;;;4996957;28;20139;-70
2022/03/20 11:22:05;;;;;;;5.53;2.95;;;6.50;99.90;;;;;;5003435;28;20933;-74
2022/03/20 11:24:35;;;;;;;4.97;3.63;;;6.60;99.90;;;;;;4990277;28;20494;-69
2022/03/20 11:27:04;;;;;;;8.02;2.80;;;6.60;99.90;;;;;;4997826;28;20172;-71
2022/03/20 11:29:48;;;;;;;4.88;3.20;;;6.70;99.90;;;;;;5003452;28;20045;-70
2022/03/20 11:32:17;;;;;;;8.65;3.50;;;6.70;99.90;;;;;;5001296;28;20112;-65
2022/03/20 11:34:46;;;;;;;6.40;3.10;;;6.80;99.90;;;;;;5003658;28;20118;-64
2022/03/20 11:37:15;;;;;;;7.63;3.28;;;6.80;99.90;;;;;;4995593;28;20517;-70
2022/03/20 11:40:30;;;;;;;15.18;4.15;;;6.70;99.90;;;;;;5003700;28;20080;-65
2022/03/20 11:43:16;;;;;;;5.85;3.72;;;6.60;99.90;;;;;;5002179;28;20173;-68
2022/03/20 11:46:11;;;;;;;7.72;4.25;;;6.50;99.90;;;;;;4991848;28;20115;-67
2022/03/20 11:48:39;;;;;;;4.53;3.45;;;6.60;99.90;;;;;;5000769;28;20066;-65
2022/03/20 11:51:06;;;;;;;3.58;2.90;;;6.70;99.90;;;;;;4988422;28;20209;-67
2022/03/20 11:53:37;;;;;;;23.77;4.28;;;6.70;99.90;;;;;;5001717;28;20475;-69
2022/03/20 11:56:28;;;;;;;6.35;3.67;;;6.80;99.90;;;;;;5003639;28;20157;-66
2022/03/20 11:58:55;;;;;;;3.97;3.42;;;6.90;99.90;;;;;;5002821;28;20054;-67
2022/03/20 12:01:23;;;;;;;6.70;4.15;;;6.90;99.90;;;;;;5002326;28;20842;-65
2022/03/20 12:04:03;;;;;;;8.35;3.08;;;6.90;99.90;;;;;;5000782;28;20048;-67
2022/03/20 12:06:44;;;;;;;3.85;3.47;;;6.90;99.90;;;;;;5000759;28;20743;-65
2022/03/20 12:09:36;;;;;;;8.65;4.18;;;6.90;99.90;;;;;;5000976;28;20057;-68
2022/03/20 12:12:21;;;;;;;5.30;4.10;;;6.90;99.90;;;;;;4997876;28;20260;-71
2022/03/20 12:14:53;;;;;;;5.70;4.45;;;6.90;99.90;;;;;;5002658;28;20472;-64
2022/03/20 12:17:21;;;;;;;5.20;4.63;;;7.00;99.90;;;;;;4999066;28;20384;-68
2022/03/20 12:19:53;;;;;;;4.55;3.83;;;7.00;99.90;;;;;;4999230;28;20095;-69
2022/03/20 12:22:20;;;;;;;9.70;4.05;;;7.20;99.90;;;;;;5003286;28;20050;-70
2022/03/20 12:24:54;;;;;;;6.10;3.60;;;7.30;99.90;;;;;;5004837;28;20198;-66
2022/03/20 12:27:23;;;;;;;6.85;3.45;;;7.20;99.90;;;;;;4998569;28;20069;-67
2022/03/20 12:29:54;;;;;;;5.43;3.83;;;7.20;99.90;;;;;;4999618;28;20586;-67
2022/03/20 12:32:24;;;;;;;4.55;3.30;;;7.20;99.90;;;;;;4996533;28;20054;-73
2022/03/20 12:35:03;;;;;;;4.80;3.78;;;7.10;99.90;;;;;;4996357;28;20053;-74
2022/03/20 12:37:37;;;;;;;7.05;3.17;;;7.00;99.90;;;;;;4997359;28;20049;-72
2022/03/20 12:40:05;;;;;;;6.07;4.05;;;7.00;99.90;;;;;;5002632;28;20054;-69
2022/03/20 12:42:35;;;;;;;7.70;3.55;;;7.00;99.90;;;;;;5002880;28;20108;-68
2022/03/20 12:45:04;;;;;;;4.00;3.57;;;6.90;99.90;;;;;;5001085;28;20045;-69
2022/03/20 12:47:31;;;;;;;9.00;4.53;;;6.90;99.90;;;;;;5001558;28;20050;-68
2022/03/20 12:50:10;;;;;;;3.97;3.60;;;6.80;99.90;;;;;;5002684;28;20076;-67
2022/03/20 12:52:38;;;;;;;7.65;4.25;;;6.70;99.90;;;;;;5002611;28;20460;-70
2022/03/20 12:55:08;;;;;;;4.20;3.38;;;6.70;99.90;;;;;;4994002;28;20089;-67
2022/03/20 12:57:39;;;;;;;6.43;3.47;;;6.60;99.90;;;;;;4994822;28;20080;-71
2022/03/20 13:00:14;;;;;;;4.78;3.75;;;6.60;99.90;;;;;;5003203;28;20533;-70
2022/03/20 13:03:01;;;;;;;7.20;3.83;;;6.60;99.90;;;;;;4998987;28;20068;-66
2022/03/20 13:05:45;;;;;;;3.45;3.15;;;6.80;99.90;;;;;;4996365;28;20045;-67
2022/03/20 13:08:23;;;;;;;4.88;2.95;;;6.90;99.90;;;;;;5002056;28;20511;-68
2022/03/20 13:10:52;;;;;;;3.67;3.38;;;7.10;99.90;;;;;;5002291;28;20083;-64
2022/03/20 13:13:27;;;;;;;4.55;2.65;;;7.30;99.90;;;;;;4999366;28;20046;-73
2022/03/20 13:15:55;;;;;;;3.85;2.95;;;7.50;99.90;;;;;;4999982;28;20133;-69
2022/03/20 13:18:24;;;;;;;4.90;2.55;;;7.70;99.90;;;;;;5003089;28;20058;-68
2022/03/20 13:20:52;;;;;;;3.38;2.40;;;7.90;99.90;;;;;;5003228;28;20077;-69
2022/03/20 13:23:25;;;;;;;3.45;2.33;;;8.00;99.90;;;;;;5010768;28;20060;-66
2022/03/20 13:25:59;;;;;;;13.38;3.65;;;8.10;99.90;;;;;;5002057;28;20124;-69
2022/03/20 13:28:29;;;;;;;4.22;2.55;;;8.30;99.90;;;;;;5002037;28;20112;-70
2022/03/20 13:31:10;;;;;;;3.85;2.88;;;8.50;99.90;;;;;;5008259;28;20054;-67
2022/03/20 13:33:53;;;;;;;5.00;2.10;;;8.50;99.90;;;;;;5002750;28;20475;-67
2022/03/20 13:36:24;;;;;;;5.40;2.40;;;8.40;99.90;;;;;;5006178;28;20049;-66
2022/03/20 13:38:54;;;;;;;3.85;2.38;;;8.50;99.90;;;;;;5005714;28;20128;-65
2022/03/20 13:41:24;;;;;;;6.40;2.70;;;8.40;99.90;;;;;;5004720;28;20182;-68